sensor_id;sensor_type;location;lat;lon;timestamp;temperature;humidity
23560;DHT22;11958;50.836;4.438;2023-07-29T00:01:02;20.50;85.60
23560;DHT22;11958;50.836;4.438;2023-07-29T00:03:28;20.30;85.20
23560;DHT22;11958;50.836;4.438;2023-07-29T00:05:56;20.20;85.40
23560;DHT22;11958;50.836;4.438;2023-07-29T00:08:21;20.40;84.00
23560;DHT22;11958;50.836;4.438;2023-07-29T00:10:47;20.10;82.80
23560;DHT22;11958;50.836;4.438;2023-07-29T00:13:12;20.00;84.50
23560;DHT22;11958;50.836;4.438;2023-07-29T00:15:38;20.10;83.40
23560;DHT22;11958;50.836;4.438;2023-07-29T00:18:04;20.10;83.60
23560;DHT22;11958;50.836;4.438;2023-07-29T00:20:29;20.00;83.90
23560;DHT22;11958;50.836;4.438;2023-07-29T00:22:55;20.10;82.80
23560;DHT22;11958;50.836;4.438;2023-07-29T00:25:22;19.80;83.00
23560;DHT22;11958;50.836;4.438;2023-07-29T00:27:48;19.70;82.20
23560;DHT22;11958;50.836;4.438;2023-07-29T00:30:13;19.50;83.70
23560;DHT22;11958;50.836;4.438;2023-07-29T00:32:39;19.70;82.50
23560;DHT22;11958;50.836;4.438;2023-07-29T00:35:05;19.70;81.30
23560;DHT22;11958;50.836;4.438;2023-07-29T00:37:31;19.70;81.30
23560;DHT22;11958;50.836;4.438;2023-07-29T00:39:59;19.40;82.80
23560;DHT22;11958;50.836;4.438;2023-07-29T00:42:25;19.40;82.20
23560;DHT22;11958;50.836;4.438;2023-07-29T00:44:51;19.60;81.60
23560;DHT22;11958;50.836;4.438;2023-07-29T00:47:18;19.50;81.90
23560;DHT22;11958;50.836;4.438;2023-07-29T00:49:44;19.40;82.10
23560;DHT22;11958;50.836;4.438;2023-07-29T00:52:11;19.40;81.40
23560;DHT22;11958;50.836;4.438;2023-07-29T00:54:39;19.40;82.50
23560;DHT22;11958;50.836;4.438;2023-07-29T00:57:08;19.60;81.90
23560;DHT22;11958;50.836;4.438;2023-07-29T00:59:35;19.30;82.90
23560;DHT22;11958;50.836;4.438;2023-07-29T01:02:02;19.50;81.90
23560;DHT22;11958;50.836;4.438;2023-07-29T01:04:28;19.40;82.10
23560;DHT22;11958;50.836;4.438;2023-07-29T01:07:07;19.20;82.20
23560;DHT22;11958;50.836;4.438;2023-07-29T01:09:41;19.20;83.30
23560;DHT22;11958;50.836;4.438;2023-07-29T01:12:16;19.50;82.00
23560;DHT22;11958;50.836;4.438;2023-07-29T01:14:50;19.40;82.00
23560;DHT22;11958;50.836;4.438;2023-07-29T01:17:23;19.30;82.70
23560;DHT22;11958;50.836;4.438;2023-07-29T01:20:03;19.20;83.20
23560;DHT22;11958;50.836;4.438;2023-07-29T01:22:34;19.60;81.60
23560;DHT22;11958;50.836;4.438;2023-07-29T01:25:00;19.70;81.50
23560;DHT22;11958;50.836;4.438;2023-07-29T01:27:26;19.30;82.40
23560;DHT22;11958;50.836;4.438;2023-07-29T01:29:53;19.20;82.90
23560;DHT22;11958;50.836;4.438;2023-07-29T01:32:28;19.30;82.90
23560;DHT22;11958;50.836;4.438;2023-07-29T01:35:00;19.70;82.20
23560;DHT22;11958;50.836;4.438;2023-07-29T01:37:31;19.70;82.30
23560;DHT22;11958;50.836;4.438;2023-07-29T01:39:59;19.60;82.60
23560;DHT22;11958;50.836;4.438;2023-07-29T01:42:25;19.70;83.00
23560;DHT22;11958;50.836;4.438;2023-07-29T01:44:52;19.80;82.30
23560;DHT22;11958;50.836;4.438;2023-07-29T01:47:18;19.70;82.30
23560;DHT22;11958;50.836;4.438;2023-07-29T01:49:43;19.60;82.10
23560;DHT22;11958;50.836;4.438;2023-07-29T01:52:09;19.40;83.30
23560;DHT22;11958;50.836;4.438;2023-07-29T01:54:35;19.50;82.90
23560;DHT22;11958;50.836;4.438;2023-07-29T01:57:00;19.50;82.70
23560;DHT22;11958;50.836;4.438;2023-07-29T01:59:26;19.60;82.40
23560;DHT22;11958;50.836;4.438;2023-07-29T02:01:52;19.60;82.30
23560;DHT22;11958;50.836;4.438;2023-07-29T02:04:18;19.40;82.70
23560;DHT22;11958;50.836;4.438;2023-07-29T02:06:43;19.40;82.80
23560;DHT22;11958;50.836;4.438;2023-07-29T02:09:09;19.40;83.50
23560;DHT22;11958;50.836;4.438;2023-07-29T02:11:35;19.20;84.00
23560;DHT22;11958;50.836;4.438;2023-07-29T02:14:00;19.50;83.10
23560;DHT22;11958;50.836;4.438;2023-07-29T02:16:26;19.40;83.40
23560;DHT22;11958;50.836;4.438;2023-07-29T02:18:52;19.40;83.20
23560;DHT22;11958;50.836;4.438;2023-07-29T02:21:17;19.20;84.60
23560;DHT22;11958;50.836;4.438;2023-07-29T02:23:43;19.40;83.30
23560;DHT22;11958;50.836;4.438;2023-07-29T02:29:04;19.40;83.20
23560;DHT22;11958;50.836;4.438;2023-07-29T02:31:31;19.20;83.90
23560;DHT22;11958;50.836;4.438;2023-07-29T02:34:11;19.10;84.40
23560;DHT22;11958;50.836;4.438;2023-07-29T02:36:36;19.20;83.90
23560;DHT22;11958;50.836;4.438;2023-07-29T02:39:05;18.90;84.20
23560;DHT22;11958;50.836;4.438;2023-07-29T02:41:31;19.00;84.80
23560;DHT22;11958;50.836;4.438;2023-07-29T02:43:57;19.10;83.80
23560;DHT22;11958;50.836;4.438;2023-07-29T02:46:22;19.20;83.70
23560;DHT22;11958;50.836;4.438;2023-07-29T02:48:49;19.30;83.40
23560;DHT22;11958;50.836;4.438;2023-07-29T02:51:14;19.20;83.10
23560;DHT22;11958;50.836;4.438;2023-07-29T02:53:40;19.30;83.20
23560;DHT22;11958;50.836;4.438;2023-07-29T02:56:06;19.10;83.90
23560;DHT22;11958;50.836;4.438;2023-07-29T02:58:35;19.10;82.90
23560;DHT22;11958;50.836;4.438;2023-07-29T03:01:05;19.20;83.10
23560;DHT22;11958;50.836;4.438;2023-07-29T03:03:32;19.00;83.40
23560;DHT22;11958;50.836;4.438;2023-07-29T03:06:03;19.00;84.10
23560;DHT22;11958;50.836;4.438;2023-07-29T03:08:29;19.00;83.70
23560;DHT22;11958;50.836;4.438;2023-07-29T03:10:55;19.00;84.00
23560;DHT22;11958;50.836;4.438;2023-07-29T03:13:21;19.00;84.10
23560;DHT22;11958;50.836;4.438;2023-07-29T03:15:46;19.10;83.50
23560;DHT22;11958;50.836;4.438;2023-07-29T03:18:12;19.10;83.60
23560;DHT22;11958;50.836;4.438;2023-07-29T03:20:38;19.00;83.90
23560;DHT22;11958;50.836;4.438;2023-07-29T03:23:03;18.90;84.30
23560;DHT22;11958;50.836;4.438;2023-07-29T03:25:29;18.60;84.50
23560;DHT22;11958;50.836;4.438;2023-07-29T03:27:55;18.80;84.10
23560;DHT22;11958;50.836;4.438;2023-07-29T03:30:22;18.90;83.50
23560;DHT22;11958;50.836;4.438;2023-07-29T03:32:48;18.70;83.90
23560;DHT22;11958;50.836;4.438;2023-07-29T03:35:14;18.80;83.60
23560;DHT22;11958;50.836;4.438;2023-07-29T03:37:41;18.90;83.80
23560;DHT22;11958;50.836;4.438;2023-07-29T03:40:07;18.90;83.60
23560;DHT22;11958;50.836;4.438;2023-07-29T03:42:34;19.10;83.20
23560;DHT22;11958;50.836;4.438;2023-07-29T03:45:13;19.10;83.20
23560;DHT22;11958;50.836;4.438;2023-07-29T03:47:48;18.80;83.90
23560;DHT22;11958;50.836;4.438;2023-07-29T03:50:32;18.90;83.90
23560;DHT22;11958;50.836;4.438;2023-07-29T03:53:00;18.70;84.70
23560;DHT22;11958;50.836;4.438;2023-07-29T03:55:40;18.60;85.90
23560;DHT22;11958;50.836;4.438;2023-07-29T03:58:06;18.40;85.60
23560;DHT22;11958;50.836;4.438;2023-07-29T04:00:32;18.80;84.20
23560;DHT22;11958;50.836;4.438;2023-07-29T04:02:58;18.70;84.10
23560;DHT22;11958;50.836;4.438;2023-07-29T04:05:23;18.70;84.40
23560;DHT22;11958;50.836;4.438;2023-07-29T04:07:49;18.70;84.50
23560;DHT22;11958;50.836;4.438;2023-07-29T04:10:15;18.70;84.40
23560;DHT22;11958;50.836;4.438;2023-07-29T04:12:41;18.80;84.00
23560;DHT22;11958;50.836;4.438;2023-07-29T04:15:07;18.70;84.00
23560;DHT22;11958;50.836;4.438;2023-07-29T04:17:33;18.80;83.40
23560;DHT22;11958;50.836;4.438;2023-07-29T04:19:58;18.70;84.30
23560;DHT22;11958;50.836;4.438;2023-07-29T04:22:24;18.80;84.30
23560;DHT22;11958;50.836;4.438;2023-07-29T04:24:49;18.80;83.70
23560;DHT22;11958;50.836;4.438;2023-07-29T04:27:15;18.70;84.20
23560;DHT22;11958;50.836;4.438;2023-07-29T04:29:42;18.90;83.60
23560;DHT22;11958;50.836;4.438;2023-07-29T04:32:08;18.70;83.70
23560;DHT22;11958;50.836;4.438;2023-07-29T04:34:36;18.70;84.30
23560;DHT22;11958;50.836;4.438;2023-07-29T04:37:02;18.80;84.00
23560;DHT22;11958;50.836;4.438;2023-07-29T04:39:27;18.80;84.10
23560;DHT22;11958;50.836;4.438;2023-07-29T04:41:53;18.50;84.70
23560;DHT22;11958;50.836;4.438;2023-07-29T04:44:19;18.70;84.40
23560;DHT22;11958;50.836;4.438;2023-07-29T04:46:44;18.60;84.10
23560;DHT22;11958;50.836;4.438;2023-07-29T04:49:10;18.90;83.90
23560;DHT22;11958;50.836;4.438;2023-07-29T04:51:49;18.90;83.80
23560;DHT22;11958;50.836;4.438;2023-07-29T04:54:15;18.80;83.60
23560;DHT22;11958;50.836;4.438;2023-07-29T04:56:56;18.80;83.40
23560;DHT22;11958;50.836;4.438;2023-07-29T04:59:35;18.80;83.70
23560;DHT22;11958;50.836;4.438;2023-07-29T05:02:07;18.70;83.90
23560;DHT22;11958;50.836;4.438;2023-07-29T05:04:33;19.00;82.90
23560;DHT22;11958;50.836;4.438;2023-07-29T05:06:58;18.90;82.80
23560;DHT22;11958;50.836;4.438;2023-07-29T05:09:24;19.00;82.80
23560;DHT22;11958;50.836;4.438;2023-07-29T05:11:50;19.00;83.30
23560;DHT22;11958;50.836;4.438;2023-07-29T05:14:17;19.00;82.90
23560;DHT22;11958;50.836;4.438;2023-07-29T05:16:43;18.80;83.70
23560;DHT22;11958;50.836;4.438;2023-07-29T05:19:09;18.70;83.60
23560;DHT22;11958;50.836;4.438;2023-07-29T05:21:36;18.70;84.10
23560;DHT22;11958;50.836;4.438;2023-07-29T05:24:02;19.00;83.90
23560;DHT22;11958;50.836;4.438;2023-07-29T05:26:27;19.00;83.30
23560;DHT22;11958;50.836;4.438;2023-07-29T05:28:53;18.90;83.40
23560;DHT22;11958;50.836;4.438;2023-07-29T05:31:19;18.90;83.00
23560;DHT22;11958;50.836;4.438;2023-07-29T05:33:45;18.70;83.40
23560;DHT22;11958;50.836;4.438;2023-07-29T05:36:10;18.60;83.50
23560;DHT22;11958;50.836;4.438;2023-07-29T05:38:36;18.60;84.00
23560;DHT22;11958;50.836;4.438;2023-07-29T05:41:02;18.80;83.40
23560;DHT22;11958;50.836;4.438;2023-07-29T05:43:28;18.80;83.40
23560;DHT22;11958;50.836;4.438;2023-07-29T05:45:53;18.60;83.30
23560;DHT22;11958;50.836;4.438;2023-07-29T05:48:20;18.60;83.20
23560;DHT22;11958;50.836;4.438;2023-07-29T05:50:47;18.70;83.70
23560;DHT22;11958;50.836;4.438;2023-07-29T05:53:14;19.00;83.20
23560;DHT22;11958;50.836;4.438;2023-07-29T05:56:00;19.00;83.10
23560;DHT22;11958;50.836;4.438;2023-07-29T05:58:57;19.10;82.20
23560;DHT22;11958;50.836;4.438;2023-07-29T06:01:26;19.20;81.90
23560;DHT22;11958;50.836;4.438;2023-07-29T06:04:04;19.30;81.00
23560;DHT22;11958;50.836;4.438;2023-07-29T06:06:29;19.30;78.60
23560;DHT22;11958;50.836;4.438;2023-07-29T06:08:55;19.40;80.10
23560;DHT22;11958;50.836;4.438;2023-07-29T06:11:36;19.40;80.20
23560;DHT22;11958;50.836;4.438;2023-07-29T06:14:06;19.70;79.70
23560;DHT22;11958;50.836;4.438;2023-07-29T06:16:47;19.70;79.10
23560;DHT22;11958;50.836;4.438;2023-07-29T06:19:12;19.60;79.50
23560;DHT22;11958;50.836;4.438;2023-07-29T06:21:42;19.50;78.60
23560;DHT22;11958;50.836;4.438;2023-07-29T06:24:07;20.00;79.40
23560;DHT22;11958;50.836;4.438;2023-07-29T06:26:45;20.10;78.40
23560;DHT22;11958;50.836;4.438;2023-07-29T06:29:22;20.30;78.90
23560;DHT22;11958;50.836;4.438;2023-07-29T06:31:51;20.20;78.70
23560;DHT22;11958;50.836;4.438;2023-07-29T06:34:17;20.40;78.00
23560;DHT22;11958;50.836;4.438;2023-07-29T06:36:43;20.30;77.60
23560;DHT22;11958;50.836;4.438;2023-07-29T06:39:09;20.30;77.80
23560;DHT22;11958;50.836;4.438;2023-07-29T06:41:35;20.50;77.50
23560;DHT22;11958;50.836;4.438;2023-07-29T06:44:01;20.80;77.60
23560;DHT22;11958;50.836;4.438;2023-07-29T06:46:32;21.20;74.30
23560;DHT22;11958;50.836;4.438;2023-07-29T06:49:01;21.10;73.90
23560;DHT22;11958;50.836;4.438;2023-07-29T06:51:27;21.20;72.00
23560;DHT22;11958;50.836;4.438;2023-07-29T06:53:54;21.10;71.20
23560;DHT22;11958;50.836;4.438;2023-07-29T06:56:34;21.10;73.10
23560;DHT22;11958;50.836;4.438;2023-07-29T06:59:08;21.30;72.60
23560;DHT22;11958;50.836;4.438;2023-07-29T07:01:42;21.40;72.90
23560;DHT22;11958;50.836;4.438;2023-07-29T07:04:26;21.30;71.60
23560;DHT22;11958;50.836;4.438;2023-07-29T07:06:52;21.20;72.60
23560;DHT22;11958;50.836;4.438;2023-07-29T07:09:18;21.10;72.70
23560;DHT22;11958;50.836;4.438;2023-07-29T07:11:44;21.00;73.40
23560;DHT22;11958;50.836;4.438;2023-07-29T07:14:10;20.90;72.50
23560;DHT22;11958;50.836;4.438;2023-07-29T07:16:36;20.60;75.80
23560;DHT22;11958;50.836;4.438;2023-07-29T07:19:02;20.70;76.30
23560;DHT22;11958;50.836;4.438;2023-07-29T07:21:28;20.60;75.00
23560;DHT22;11958;50.836;4.438;2023-07-29T07:24:54;20.50;75.00
23560;DHT22;11958;50.836;4.438;2023-07-29T07:27:22;21.00;74.70
23560;DHT22;11958;50.836;4.438;2023-07-29T07:30:03;20.90;73.30
23560;DHT22;11958;50.836;4.438;2023-07-29T07:32:34;21.00;73.80
23560;DHT22;11958;50.836;4.438;2023-07-29T07:34:59;20.80;75.30
23560;DHT22;11958;50.836;4.438;2023-07-29T07:37:25;20.60;75.90
23560;DHT22;11958;50.836;4.438;2023-07-29T07:39:51;20.60;77.10
23560;DHT22;11958;50.836;4.438;2023-07-29T07:42:37;20.30;77.40
23560;DHT22;11958;50.836;4.438;2023-07-29T07:45:03;20.20;78.40
23560;DHT22;11958;50.836;4.438;2023-07-29T07:47:47;20.30;77.10
23560;DHT22;11958;50.836;4.438;2023-07-29T07:50:16;20.30;77.30
23560;DHT22;11958;50.836;4.438;2023-07-29T07:52:54;20.80;76.50
23560;DHT22;11958;50.836;4.438;2023-07-29T07:55:19;20.90;74.60
23560;DHT22;11958;50.836;4.438;2023-07-29T07:57:51;21.30;73.80
23560;DHT22;11958;50.836;4.438;2023-07-29T08:00:17;21.00;72.90
23560;DHT22;11958;50.836;4.438;2023-07-29T08:03:01;21.10;73.20
23560;DHT22;11958;50.836;4.438;2023-07-29T08:06:25;21.30;73.80
23560;DHT22;11958;50.836;4.438;2023-07-29T08:08:48;21.60;72.80
23560;DHT22;11958;50.836;4.438;2023-07-29T08:11:16;21.50;73.30
23560;DHT22;11958;50.836;4.438;2023-07-29T08:13:44;21.60;72.30
23560;DHT22;11958;50.836;4.438;2023-07-29T08:16:25;21.70;72.70
23560;DHT22;11958;50.836;4.438;2023-07-29T08:19:15;22.00;71.90
23560;DHT22;11958;50.836;4.438;2023-07-29T08:21:53;21.90;71.50
23560;DHT22;11958;50.836;4.438;2023-07-29T08:24:31;22.10;69.70
23560;DHT22;11958;50.836;4.438;2023-07-29T08:30:41;22.20;67.70
23560;DHT22;11958;50.836;4.438;2023-07-29T08:33:28;22.50;67.30
23560;DHT22;11958;50.836;4.438;2023-07-29T08:36:15;22.50;68.30
23560;DHT22;11958;50.836;4.438;2023-07-29T08:38:46;22.50;67.90
23560;DHT22;11958;50.836;4.438;2023-07-29T08:45:19;22.40;66.30
23560;DHT22;11958;50.836;4.438;2023-07-29T08:51:27;22.30;67.70
23560;DHT22;11958;50.836;4.438;2023-07-29T08:56:34;22.40;67.70
23560;DHT22;11958;50.836;4.438;2023-07-29T09:02:49;22.40;69.20
23560;DHT22;11958;50.836;4.438;2023-07-29T09:05:33;22.60;67.30
23560;DHT22;11958;50.836;4.438;2023-07-29T09:08:06;22.90;67.40
23560;DHT22;11958;50.836;4.438;2023-07-29T09:10:43;23.00;64.20
23560;DHT22;11958;50.836;4.438;2023-07-29T09:13:21;23.20;64.10
23560;DHT22;11958;50.836;4.438;2023-07-29T09:16:02;23.80;61.10
23560;DHT22;11958;50.836;4.438;2023-07-29T09:18:30;23.70;60.90
23560;DHT22;11958;50.836;4.438;2023-07-29T09:20:59;23.90;62.10
23560;DHT22;11958;50.836;4.438;2023-07-29T09:23:26;23.90;61.60
23560;DHT22;11958;50.836;4.438;2023-07-29T09:26:01;23.50;61.00
23560;DHT22;11958;50.836;4.438;2023-07-29T09:28:26;23.60;61.70
23560;DHT22;11958;50.836;4.438;2023-07-29T09:30:57;23.90;62.00
23560;DHT22;11958;50.836;4.438;2023-07-29T09:33:26;24.00;60.80
23560;DHT22;11958;50.836;4.438;2023-07-29T09:35:51;24.00;61.50
23560;DHT22;11958;50.836;4.438;2023-07-29T09:38:26;24.00;61.20
23560;DHT22;11958;50.836;4.438;2023-07-29T09:40:58;24.20;58.90
23560;DHT22;11958;50.836;4.438;2023-07-29T09:43:39;24.20;59.30
23560;DHT22;11958;50.836;4.438;2023-07-29T09:46:05;24.30;57.70
23560;DHT22;11958;50.836;4.438;2023-07-29T09:48:41;24.00;60.10
23560;DHT22;11958;50.836;4.438;2023-07-29T09:51:16;23.80;59.60
23560;DHT22;11958;50.836;4.438;2023-07-29T09:53:44;23.80;61.10
23560;DHT22;11958;50.836;4.438;2023-07-29T09:56:10;23.70;61.20
23560;DHT22;11958;50.836;4.438;2023-07-29T09:58:36;23.60;62.50
23560;DHT22;11958;50.836;4.438;2023-07-29T10:01:04;23.40;62.00
23560;DHT22;11958;50.836;4.438;2023-07-29T10:03:31;23.80;62.80
23560;DHT22;11958;50.836;4.438;2023-07-29T10:06:01;23.50;63.80
23560;DHT22;11958;50.836;4.438;2023-07-29T10:08:30;23.80;62.60
23560;DHT22;11958;50.836;4.438;2023-07-29T10:10:59;23.70;60.80
23560;DHT22;11958;50.836;4.438;2023-07-29T10:13:26;23.70;61.30
23560;DHT22;11958;50.836;4.438;2023-07-29T10:15:53;24.20;60.90
23560;DHT22;11958;50.836;4.438;2023-07-29T10:18:22;24.50;60.00
23560;DHT22;11958;50.836;4.438;2023-07-29T10:21:05;24.20;60.90
23560;DHT22;11958;50.836;4.438;2023-07-29T10:23:38;24.00;60.70
23560;DHT22;11958;50.836;4.438;2023-07-29T10:31:23;23.90;61.90
23560;DHT22;11958;50.836;4.438;2023-07-29T10:33:57;24.00;63.90
23560;DHT22;11958;50.836;4.438;2023-07-29T10:36:32;23.40;66.10
23560;DHT22;11958;50.836;4.438;2023-07-29T10:42:31;22.40;74.30
23560;DHT22;11958;50.836;4.438;2023-07-29T10:45:20;22.60;75.20
23560;DHT22;11958;50.836;4.438;2023-07-29T10:51:25;22.50;77.50
23560;DHT22;11958;50.836;4.438;2023-07-29T10:54:12;22.60;77.60
23560;DHT22;11958;50.836;4.438;2023-07-29T10:56:48;22.50;76.60
23560;DHT22;11958;50.836;4.438;2023-07-29T11:01:51;22.50;78.60
23560;DHT22;11958;50.836;4.438;2023-07-29T11:12:39;22.60;78.90
23560;DHT22;11958;50.836;4.438;2023-07-29T11:15:18;22.70;78.70
23560;DHT22;11958;50.836;4.438;2023-07-29T11:22:51;22.00;77.90
23560;DHT22;11958;50.836;4.438;2023-07-29T11:25:18;22.10;77.20
23560;DHT22;11958;50.836;4.438;2023-07-29T11:27:45;22.20;77.80
23560;DHT22;11958;50.836;4.438;2023-07-29T11:30:25;22.10;76.90
23560;DHT22;11958;50.836;4.438;2023-07-29T11:33:10;22.20;77.60
23560;DHT22;11958;50.836;4.438;2023-07-29T11:35:49;22.50;78.60
23560;DHT22;11958;50.836;4.438;2023-07-29T11:38:42;22.50;76.40
23560;DHT22;11958;50.836;4.438;2023-07-29T11:47:51;22.70;75.50
23560;DHT22;11958;50.836;4.438;2023-07-29T11:50:17;22.60;75.10
23560;DHT22;11958;50.836;4.438;2023-07-29T11:53:08;22.90;75.30
23560;DHT22;11958;50.836;4.438;2023-07-29T12:01:07;24.00;67.60
23560;DHT22;11958;50.836;4.438;2023-07-29T12:06:51;24.00;68.90
23560;DHT22;11958;50.836;4.438;2023-07-29T12:09:20;24.40;65.40
23560;DHT22;11958;50.836;4.438;2023-07-29T12:12:29;23.90;66.70
23560;DHT22;11958;50.836;4.438;2023-07-29T12:18:32;23.60;70.80
23560;DHT22;11958;50.836;4.438;2023-07-29T12:20:58;23.60;72.50
23560;DHT22;11958;50.836;4.438;2023-07-29T12:23:30;23.40;73.00
23560;DHT22;11958;50.836;4.438;2023-07-29T12:25:59;23.10;75.20
23560;DHT22;11958;50.836;4.438;2023-07-29T12:40:23;22.00;77.80
23560;DHT22;11958;50.836;4.438;2023-07-29T12:46:09;22.10;80.90
23560;DHT22;11958;50.836;4.438;2023-07-29T12:48:41;22.60;82.20
23560;DHT22;11958;50.836;4.438;2023-07-29T12:54:18;25.60;72.30
23560;DHT22;11958;50.836;4.438;2023-07-29T12:57:02;26.00;69.30
23560;DHT22;11958;50.836;4.438;2023-07-29T12:59:38;26.50;65.00
23560;DHT22;11958;50.836;4.438;2023-07-29T13:04:46;27.60;61.00
23560;DHT22;11958;50.836;4.438;2023-07-29T13:07:58;27.50;57.80
23560;DHT22;11958;50.836;4.438;2023-07-29T13:10:26;27.60;61.10
23560;DHT22;11958;50.836;4.438;2023-07-29T13:13:10;28.50;55.40
23560;DHT22;11958;50.836;4.438;2023-07-29T13:16:03;29.10;53.70
23560;DHT22;11958;50.836;4.438;2023-07-29T13:18:33;29.20;52.40
23560;DHT22;11958;50.836;4.438;2023-07-29T13:21:08;29.90;52.80
23560;DHT22;11958;50.836;4.438;2023-07-29T13:23:46;29.20;52.00
23560;DHT22;11958;50.836;4.438;2023-07-29T13:26:30;28.60;56.20
23560;DHT22;11958;50.836;4.438;2023-07-29T13:28:56;27.70;57.40
23560;DHT22;11958;50.836;4.438;2023-07-29T13:32:19;26.50;57.60
23560;DHT22;11958;50.836;4.438;2023-07-29T13:34:38;26.20;62.30
23560;DHT22;11958;50.836;4.438;2023-07-29T13:37:14;26.50;59.40
23560;DHT22;11958;50.836;4.438;2023-07-29T13:40:02;27.40;58.60
23560;DHT22;11958;50.836;4.438;2023-07-29T13:45:34;28.50;54.10
23560;DHT22;11958;50.836;4.438;2023-07-29T13:48:00;30.20;50.20
23560;DHT22;11958;50.836;4.438;2023-07-29T13:50:26;29.40;51.80
23560;DHT22;11958;50.836;4.438;2023-07-29T13:52:51;28.40;51.00
23560;DHT22;11958;50.836;4.438;2023-07-29T13:58:14;27.10;56.30
23560;DHT22;11958;50.836;4.438;2023-07-29T14:00:42;26.20;57.40
23560;DHT22;11958;50.836;4.438;2023-07-29T14:03:46;25.60;60.50
23560;DHT22;11958;50.836;4.438;2023-07-29T14:06:32;24.60;62.80
23560;DHT22;11958;50.836;4.438;2023-07-29T14:09:01;24.50;64.40
23560;DHT22;11958;50.836;4.438;2023-07-29T14:14:12;27.10;58.50
23560;DHT22;11958;50.836;4.438;2023-07-29T14:22:46;29.50;47.00
23560;DHT22;11958;50.836;4.438;2023-07-29T14:31:12;29.00;48.50
23560;DHT22;11958;50.836;4.438;2023-07-29T14:34:05;30.10;48.50
23560;DHT22;11958;50.836;4.438;2023-07-29T14:36:46;30.20;44.80
23560;DHT22;11958;50.836;4.438;2023-07-29T14:39:12;30.50;42.70
23560;DHT22;11958;50.836;4.438;2023-07-29T14:41:39;30.80;44.50
23560;DHT22;11958;50.836;4.438;2023-07-29T14:47:02;31.60;39.40
23560;DHT22;11958;50.836;4.438;2023-07-29T14:49:51;31.30;42.50
23560;DHT22;11958;50.836;4.438;2023-07-29T14:52:17;30.00;42.10
23560;DHT22;11958;50.836;4.438;2023-07-29T14:54:57;29.60;44.30
23560;DHT22;11958;50.836;4.438;2023-07-29T14:57:26;28.80;44.50
23560;DHT22;11958;50.836;4.438;2023-07-29T14:59:57;27.70;49.80
23560;DHT22;11958;50.836;4.438;2023-07-29T15:02:23;27.40;49.00
23560;DHT22;11958;50.836;4.438;2023-07-29T15:05:07;27.40;50.10
23560;DHT22;11958;50.836;4.438;2023-07-29T15:07:39;27.40;49.10
23560;DHT22;11958;50.836;4.438;2023-07-29T15:10:05;27.40;49.20
23560;DHT22;11958;50.836;4.438;2023-07-29T15:12:30;27.20;49.90
23560;DHT22;11958;50.836;4.438;2023-07-29T15:14:56;26.90;52.00
23560;DHT22;11958;50.836;4.438;2023-07-29T15:17:22;27.30;51.10
23560;DHT22;11958;50.836;4.438;2023-07-29T15:19:47;27.10;52.70
23560;DHT22;11958;50.836;4.438;2023-07-29T15:22:16;27.50;52.30
23560;DHT22;11958;50.836;4.438;2023-07-29T15:24:42;27.50;51.90
23560;DHT22;11958;50.836;4.438;2023-07-29T15:27:09;26.80;52.70
23560;DHT22;11958;50.836;4.438;2023-07-29T15:29:35;26.80;52.00
23560;DHT22;11958;50.836;4.438;2023-07-29T15:32:01;26.40;54.50
23560;DHT22;11958;50.836;4.438;2023-07-29T15:34:35;26.40;54.00
23560;DHT22;11958;50.836;4.438;2023-07-29T15:37:04;25.20;55.90
23560;DHT22;11958;50.836;4.438;2023-07-29T15:39:47;25.00;57.10
23560;DHT22;11958;50.836;4.438;2023-07-29T15:42:21;24.50;57.60
23560;DHT22;11958;50.836;4.438;2023-07-29T15:44:47;24.40;58.80
23560;DHT22;11958;50.836;4.438;2023-07-29T15:47:18;23.90;61.30
23560;DHT22;11958;50.836;4.438;2023-07-29T15:49:59;23.80;61.30
23560;DHT22;11958;50.836;4.438;2023-07-29T15:55:43;24.20;60.50
23560;DHT22;11958;50.836;4.438;2023-07-29T15:58:14;24.20;61.30
23560;DHT22;11958;50.836;4.438;2023-07-29T16:00:58;24.30;61.80
23560;DHT22;11958;50.836;4.438;2023-07-29T16:03:39;24.20;63.40
23560;DHT22;11958;50.836;4.438;2023-07-29T16:09:21;24.20;61.90
23560;DHT22;11958;50.836;4.438;2023-07-29T16:12:07;24.20;61.90
23560;DHT22;11958;50.836;4.438;2023-07-29T16:18:18;24.10;60.90
23560;DHT22;11958;50.836;4.438;2023-07-29T16:21:05;24.30;61.40
23560;DHT22;11958;50.836;4.438;2023-07-29T16:23:34;24.80;61.80
23560;DHT22;11958;50.836;4.438;2023-07-29T16:26:11;24.40;60.50
23560;DHT22;11958;50.836;4.438;2023-07-29T16:29:02;24.50;60.50
23560;DHT22;11958;50.836;4.438;2023-07-29T16:31:34;24.50;60.50
23560;DHT22;11958;50.836;4.438;2023-07-29T16:34:21;24.40;59.30
23560;DHT22;11958;50.836;4.438;2023-07-29T16:36:50;24.50;61.80
23560;DHT22;11958;50.836;4.438;2023-07-29T16:39:18;24.60;59.10
23560;DHT22;11958;50.836;4.438;2023-07-29T16:41:50;24.70;59.60
23560;DHT22;11958;50.836;4.438;2023-07-29T16:44:40;24.50;60.30
23560;DHT22;11958;50.836;4.438;2023-07-29T16:47:16;24.70;57.70
23560;DHT22;11958;50.836;4.438;2023-07-29T16:49:52;24.60;61.60
23560;DHT22;11958;50.836;4.438;2023-07-29T16:52:18;24.20;54.70
23560;DHT22;11958;50.836;4.438;2023-07-29T16:57:51;24.30;56.10
23560;DHT22;11958;50.836;4.438;2023-07-29T17:00:18;24.20;53.80
23560;DHT22;11958;50.836;4.438;2023-07-29T17:03:00;24.30;54.50
23560;DHT22;11958;50.836;4.438;2023-07-29T17:05:26;24.30;51.30
23560;DHT22;11958;50.836;4.438;2023-07-29T17:07:52;24.20;54.30
23560;DHT22;11958;50.836;4.438;2023-07-29T17:10:18;24.00;52.00
23560;DHT22;11958;50.836;4.438;2023-07-29T17:12:43;24.10;52.00
23560;DHT22;11958;50.836;4.438;2023-07-29T17:15:09;23.60;52.10
23560;DHT22;11958;50.836;4.438;2023-07-29T17:17:35;23.80;52.40
23560;DHT22;11958;50.836;4.438;2023-07-29T17:25:30;23.90;50.60
23560;DHT22;11958;50.836;4.438;2023-07-29T17:28:00;23.40;53.20
23560;DHT22;11958;50.836;4.438;2023-07-29T17:30:27;23.60;53.70
23560;DHT22;11958;50.836;4.438;2023-07-29T17:32:53;23.40;52.50
23560;DHT22;11958;50.836;4.438;2023-07-29T17:35:19;23.30;53.50
23560;DHT22;11958;50.836;4.438;2023-07-29T17:37:46;23.50;54.50
23560;DHT22;11958;50.836;4.438;2023-07-29T17:40:11;23.70;53.00
23560;DHT22;11958;50.836;4.438;2023-07-29T17:42:38;23.30;54.00
23560;DHT22;11958;50.836;4.438;2023-07-29T17:45:05;23.60;52.90
23560;DHT22;11958;50.836;4.438;2023-07-29T17:47:30;23.40;53.80
23560;DHT22;11958;50.836;4.438;2023-07-29T17:49:56;23.50;53.90
23560;DHT22;11958;50.836;4.438;2023-07-29T17:52:31;23.70;52.60
23560;DHT22;11958;50.836;4.438;2023-07-29T17:54:58;23.60;51.80
23560;DHT22;11958;50.836;4.438;2023-07-29T17:57:24;23.40;52.50
23560;DHT22;11958;50.836;4.438;2023-07-29T17:59:49;23.40;50.20
23560;DHT22;11958;50.836;4.438;2023-07-29T18:02:15;23.50;49.30
23560;DHT22;11958;50.836;4.438;2023-07-29T18:04:41;23.30;48.20